East Berne, New York
Current Conditions -  °F | °C
As of 11:59 PM on Sunday 21 Dec 2014 (Local Time) from KALB Reporting Station
Overcast Overcast  
Wind Chill: 30°   Ceiling: 2900
Heat Index: 30°   Visibility: 10mi
Dew Point: 23°   Wind: 3mph
Humidity: 75%   Direction: 20°NNE
Pressure: 30.37"   Gusts: NA
Location:  42.62°N, 74.07°W
Report Text: KALB 220459Z 02003KT 10SM BKN029 OVC042 M01/M05 A3037 RMK AO2 T10111050
Loading
Personal Weather Stations






























Interactive Weather Map New forecast layout! Learn more

10-Day Weather Forecast

Advertisements
Track Severe Weather on mobile